Time;durP1;ratioP1;P1;durP2;ratioP2;P2;SDS_P1;SDS_P2;PMS_P1;PMS_P2;Temp;Humidity;BMP_temperature;BMP_pressure;BME280_temperature;BME280_humidity;BME280_pressure;Samples;Min_cycle;Max_cycle;Signal;HPM_P1;HPM_P2
2023/03/25 00:02:09;;;;;;;6.82;3.38;;;;;;;9.55;100.00;99924.50;4925885;29;20613;-87
2023/03/25 00:04:38;;;;;;;10.60;2.88;;;;;;;9.55;100.00;99923.72;4912100;29;20109;-88
2023/03/25 00:07:03;;;;;;;13.05;3.50;;;;;;;9.55;100.00;99932.88;4932556;29;20062;-88
2023/03/25 00:09:29;;;;;;;9.02;2.80;;;;;;;9.41;100.00;99927.25;4907807;29;21213;-87
2023/03/25 00:11:54;;;;;;;9.77;3.22;;;;;;;9.48;100.00;99924.47;4905329;29;20040;-88
2023/03/25 00:14:20;;;;;;;6.75;3.10;;;;;;;9.45;100.00;99919.69;4927316;29;20036;-87
2023/03/25 00:16:47;;;;;;;8.13;3.00;;;;;;;9.44;100.00;99923.66;4905821;29;20652;-87
2023/03/25 00:19:14;;;;;;;10.70;3.95;;;;;;;9.34;100.00;99902.09;4929705;29;20051;-88
2023/03/25 00:21:43;;;;;;;10.13;3.80;;;;;;;9.48;100.00;99907.72;4923626;29;20031;-88
2023/03/25 00:24:11;;;;;;;7.75;3.90;;;;;;;9.48;100.00;99918.09;4914623;29;20118;-88
2023/03/25 00:26:41;;;;;;;15.40;3.47;;;;;;;9.48;100.00;99918.88;4928189;29;20027;-88
2023/03/25 00:29:07;;;;;;;8.57;3.08;;;;;;;9.46;100.00;99912.88;4906430;29;20502;-88
2023/03/25 00:31:33;;;;;;;8.32;2.75;;;;;;;9.30;100.00;99901.28;4925633;29;20115;-88
2023/03/25 00:33:58;;;;;;;5.72;2.70;;;;;;;9.29;100.00;99899.66;4927046;29;20042;-87
2023/03/25 00:36:24;;;;;;;6.07;3.20;;;;;;;9.35;100.00;99921.22;4906358;29;20075;-87
2023/03/25 00:38:50;;;;;;;13.32;2.80;;;;;;;9.32;100.00;99921.22;4925848;29;20524;-87
2023/03/25 00:41:21;;;;;;;7.45;3.15;;;;;;;9.36;100.00;99927.63;4907914;29;20027;-87
2023/03/25 00:43:47;;;;;;;15.30;2.83;;;;;;;9.28;100.00;99903.66;4924598;29;20039;-86
2023/03/25 00:46:12;;;;;;;8.10;2.88;;;;;;;9.36;100.00;99910.88;4922031;29;20047;-87
2023/03/25 00:48:38;;;;;;;10.68;2.03;;;;;;;9.36;100.00;99908.09;4911081;29;20036;-88
2023/03/25 00:51:06;;;;;;;9.63;3.88;;;;;;;9.32;100.00;99902.47;4924498;29;20516;-88
2023/03/25 00:53:32;;;;;;;21.80;3.22;;;;;;;9.39;100.00;99900.91;4912118;29;20039;-88
2023/03/25 00:55:57;;;;;;;13.68;3.97;;;;;;;9.46;100.00;99904.50;4926377;29;20035;-88
2023/03/25 00:58:23;;;;;;;12.13;3.17;;;;;;;9.46;100.00;99898.13;4928842;29;20496;-87
2023/03/25 01:00:48;;;;;;;10.70;3.38;;;;;;;9.39;100.00;99898.13;4915771;29;20023;-88
2023/03/25 01:03:14;;;;;;;11.05;3.42;;;;;;;9.45;100.00;99900.13;4910480;29;20107;-88
2023/03/25 01:05:42;;;;;;;17.65;3.47;;;;;;;9.51;100.00;99914.53;4931372;29;20518;-88
2023/03/25 01:08:07;;;;;;;11.15;2.97;;;;;;;9.41;100.00;99906.91;4924316;29;20032;-88
2023/03/25 01:10:35;;;;;;;15.45;2.88;;;;;;;9.26;100.00;99920.00;4926326;29;20031;-87
2023/03/25 01:13:01;;;;;;;16.90;4.03;;;;;;;9.18;100.00;99918.38;4907916;29;20031;-88
2023/03/25 01:15:26;;;;;;;16.35;3.92;;;;;;;9.35;100.00;99923.22;4917102;29;20504;-87
2023/03/25 01:17:51;;;;;;;10.82;3.47;;;;;;;9.30;100.00;99923.63;4922521;29;20054;-88
2023/03/25 01:20:17;;;;;;;16.67;3.30;;;;;;;9.07;100.00;99910.75;4905897;29;20031;-88
2023/03/25 01:22:42;;;;;;;11.98;3.92;;;;;;;8.95;100.00;99919.44;4913113;29;20035;-88
2023/03/25 01:25:08;;;;;;;12.02;3.25;;;;;;;8.69;100.00;99901.75;4909400;29;20123;-89
2023/03/25 01:27:33;;;;;;;15.48;2.83;;;;;;;8.70;100.00;99917.31;4909980;29;20036;-89
2023/03/25 01:29:58;;;;;;;15.07;3.63;;;;;;;8.77;100.00;99912.97;4900786;29;20510;-90
2023/03/25 01:32:24;;;;;;;18.73;3.65;;;;;;;8.90;100.00;99922.63;4919873;29;20062;-88
2023/03/25 01:34:49;;;;;;;16.20;2.90;;;;;;;8.77;100.00;99918.53;4920846;29;20039;-89
2023/03/25 01:37:15;;;;;;;8.55;2.97;;;;;;;8.74;100.00;99914.53;4910508;29;20117;-90
2023/03/25 01:39:40;;;;;;;13.45;3.42;;;;;;;8.77;100.00;99913.78;4923576;29;20114;-89
2023/03/25 01:42:05;;;;;;;6.20;2.65;;;;;;;8.68;100.00;99913.31;4926216;29;20048;-90
2023/03/25 01:44:31;;;;;;;12.32;3.00;;;;;;;8.77;100.00;99912.97;4909185;29;20079;-89
2023/03/25 01:47:02;;;;;;;16.17;3.08;;;;;;;8.72;100.00;99905.75;4929584;29;20458;-89
2023/03/25 01:49:43;;;;;;;12.52;3.13;;;;;;;8.67;100.00;99904.13;4908757;29;20043;-88
2023/03/25 01:52:17;;;;;;;16.08;3.60;;;;;;;8.74;100.00;99904.16;4926416;29;20106;-89
2023/03/25 01:54:44;;;;;;;13.52;3.40;;;;;;;8.71;100.00;99887.44;4913187;29;20378;-88
2023/03/25 01:57:12;;;;;;;16.55;3.60;;;;;;;8.70;100.00;99894.97;4927175;29;20019;-89
2023/03/25 01:59:38;;;;;;;11.13;3.67;;;;;;;8.78;100.00;99897.84;4924171;29;20065;-89
2023/03/25 02:02:07;;;;;;;23.25;4.05;;;;;;;8.69;100.00;99906.56;4923656;29;20506;-91
2023/03/25 02:04:42;;;;;;;15.98;3.60;;;;;;;8.74;100.00;99897.81;4915254;29;20034;-89
2023/03/25 02:07:09;;;;;;;12.00;3.35;;;;;;;8.77;100.00;99891.47;4910874;29;20027;-90
2023/03/25 02:09:35;;;;;;;21.05;5.25;;;;;;;8.57;100.00;99899.28;4911463;29;20623;-90
2023/03/25 02:12:00;;;;;;;25.17;3.92;;;;;;;8.44;100.00;99881.28;4912128;29;20114;-89
2023/03/25 02:14:30;;;;;;;15.75;3.45;;;;;;;8.58;100.00;99906.47;4907971;29;20540;-89
2023/03/25 02:17:16;;;;;;;16.90;3.40;;;;;;;8.59;100.00;99899.69;4928866;29;20027;-88
2023/03/25 02:20:30;;;;;;;16.48;4.15;;;;;;;8.64;100.00;99902.13;4924301;29;20043;-89
2023/03/25 02:23:32;;;;;;;15.63;4.85;;;;;;;8.68;100.00;99899.34;4916880;29;20047;-89
2023/03/25 02:26:07;;;;;;;13.02;4.68;;;;;;;8.45;100.00;99885.66;4927012;29;20044;-89
2023/03/25 02:28:50;;;;;;;12.75;4.63;;;;;;;8.65;100.00;99889.78;4922991;29;20027;-89
2023/03/25 02:31:45;;;;;;;11.68;2.90;;;;;;;8.66;100.00;99896.94;4925840;29;20513;-89
2023/03/25 02:34:16;;;;;;;16.48;3.47;;;;;;;8.62;100.00;99904.53;4909192;29;20027;-89
2023/03/25 02:37:09;;;;;;;16.85;3.83;;;;;;;8.74;100.00;99892.22;4909713;29;20119;-89
2023/03/25 02:39:42;;;;;;;11.23;3.42;;;;;;;8.58;100.00;99894.50;4921360;29;20538;-89
2023/03/25 02:42:10;;;;;;;;;;;;;;;8.65;100.00;99892.56;4925598;29;20039;-89
2023/03/25 02:44:40;;;;;;;18.35;4.47;;;;;;;8.62;100.00;99879.41;4921640;29;20402;-89
2023/03/25 02:47:15;;;;;;;15.75;5.70;;;;;;;8.78;100.00;99887.47;4913138;29;20115;-88
2023/03/25 02:49:46;;;;;;;12.80;3.10;;;;;;;8.74;100.00;99886.63;4900670;29;20079;-88
2023/03/25 02:52:27;;;;;;;9.90;3.17;;;;;;;8.73;100.00;99888.63;4921620;29;20041;-88
2023/03/25 02:54:57;;;;;;;10.15;3.50;;;;;;;8.72;100.00;99878.66;4924303;29;20062;-89
2023/03/25 02:57:27;;;;;;;10.88;3.80;;;;;;;8.67;100.00;99887.41;4911802;29;20051;-89
2023/03/25 02:59:53;;;;;;;17.50;4.20;;;;;;;8.63;100.00;99886.56;4925237;29;20035;-88
2023/03/25 03:02:20;;;;;;;12.27;4.05;;;;;;;8.68;100.00;99885.41;4905085;29;20375;-89
2023/03/25 03:04:50;;;;;;;17.70;3.97;;;;;;;8.72;100.00;99889.81;4929716;29;20031;-88
2023/03/25 03:07:38;;;;;;;16.17;3.95;;;;;;;8.70;100.00;99875.44;4921428;29;20468;-88
2023/03/25 03:10:19;;;;;;;17.05;3.10;;;;;;;8.77;100.00;99885.88;4919797;29;20044;-88
2023/03/25 03:13:19;;;;;;;9.07;3.55;;;;;;;8.74;100.00;99883.84;4930548;29;20399;-88
2023/03/25 03:16:12;;;;;;;11.68;3.78;;;;;;;8.63;100.00;99875.41;4928175;29;20035;-87
2023/03/25 03:19:10;;;;;;;14.32;3.53;;;;;;;8.62;100.00;99873.00;4909206;29;20055;-88
2023/03/25 03:21:41;;;;;;;13.93;3.45;;;;;;;8.71;100.00;99879.84;4891945;29;20051;-88
2023/03/25 03:24:18;;;;;;;11.02;3.33;;;;;;;8.67;100.00;99878.25;4931024;29;20457;-88
2023/03/25 03:26:52;;;;;;;21.17;4.53;;;;;;;8.65;100.00;99880.63;4906513;29;20857;-88
2023/03/25 03:29:31;;;;;;;14.68;3.47;;;;;;;8.64;100.00;99877.00;4923191;29;20042;-88
2023/03/25 03:32:21;;;;;;;12.98;3.75;;;;;;;8.64;100.00;99871.44;4906387;29;20044;-87
2023/03/25 03:35:05;;;;;;;18.45;3.30;;;;;;;8.75;100.00;99879.88;4926441;29;20493;-88
2023/03/25 03:37:39;;;;;;;17.20;3.72;;;;;;;8.80;100.00;99873.91;4908652;29;20028;-88
2023/03/25 03:40:09;;;;;;;14.40;3.15;;;;;;;8.67;100.00;99881.81;4910950;29;20032;-88
2023/03/25 03:42:46;;;;;;;10.45;3.10;;;;;;;8.78;100.00;99881.09;4931083;29;20027;-88
2023/03/25 03:45:24;;;;;;;11.75;3.28;;;;;;;8.71;100.00;99881.84;4918503;29;20486;-88
2023/03/25 03:47:53;;;;;;;8.38;3.42;;;;;;;8.71;100.00;99879.06;4920698;29;20032;-88
2023/03/25 03:50:23;;;;;;;14.23;3.55;;;;;;;8.53;100.00;99876.94;4906168;29;20127;-88
2023/03/25 03:53:04;;;;;;;18.90;4.03;;;;;;;8.59;100.00;99882.97;4923039;29;20040;-88
2023/03/25 03:55:41;;;;;;;11.05;2.70;;;;;;;8.63;100.00;99886.56;4923802;29;20817;-88
2023/03/25 03:58:21;;;;;;;10.60;3.75;;;;;;;8.68;100.00;99866.66;4903273;29;20049;-87
2023/03/25 04:01:29;;;;;;;18.42;4.82;;;;;;;8.64;100.00;99871.44;4917449;29;20028;-88
2023/03/25 04:04:05;;;;;;;13.77;4.90;;;;;;;8.64;100.00;99877.00;4921724;29;20032;-87
2023/03/25 04:07:21;;;;;;;14.85;3.85;;;;;;;8.68;100.00;99872.25;4901562;29;20071;-88
2023/03/25 04:10:02;;;;;;;13.30;3.35;;;;;;;8.70;100.00;99874.66;4893321;29;20039;-88
2023/03/25 04:12:34;;;;;;;12.68;2.92;;;;;;;8.69;100.00;99873.06;4925335;29;20032;-88
2023/03/25 04:15:02;;;;;;;13.45;3.47;;;;;;;8.60;100.00;99865.06;4906076;29;20580;-88
2023/03/25 04:17:31;;;;;;;18.55;3.50;;;;;;;8.69;100.00;99868.28;4924740;29;20031;-89
2023/03/25 04:19:58;;;;;;;12.82;3.70;;;;;;;8.62;100.00;99865.47;4905350;29;20225;-88
2023/03/25 04:22:23;;;;;;;14.55;4.15;;;;;;;8.54;100.00;99867.41;4924830;29;20035;-88
2023/03/25 04:24:50;;;;;;;20.65;5.13;;;;;;;8.33;100.00;99851.28;4931578;29;20094;-88
2023/03/25 04:27:21;;;;;;;13.80;3.53;;;;;;;8.64;100.00;99863.06;4914946;29;20074;-88
2023/03/25 04:29:48;;;;;;;19.70;3.58;;;;;;;8.60;100.00;99865.06;4925852;29;21067;-88
2023/03/25 04:32:15;;;;;;;13.77;3.65;;;;;;;8.52;100.00;99857.84;4912101;29;20038;-88
2023/03/25 04:34:41;;;;;;;17.65;4.72;;;;;;;8.65;100.00;99864.66;4911387;29;20127;-88
2023/03/25 04:37:06;;;;;;;20.80;4.63;;;;;;;8.55;100.00;99862.63;4929993;29;20083;-88
2023/03/25 04:39:32;;;;;;;11.55;3.58;;;;;;;8.51;100.00;99856.22;4931996;29;20028;-89
2023/03/25 04:42:02;;;;;;;18.17;3.67;;;;;;;8.48;100.00;99855.00;4928732;29;20035;-89
2023/03/25 04:44:37;;;;;;;15.57;4.00;;;;;;;8.54;100.00;99855.44;4903720;29;20037;-88
2023/03/25 04:47:05;;;;;;;11.15;3.47;;;;;;;8.60;100.00;99864.22;4906046;29;20592;-89
2023/03/25 04:49:31;;;;;;;16.00;3.75;;;;;;;8.46;100.00;99853.81;4919174;29;20545;-89
2023/03/25 04:51:58;;;;;;;14.27;4.30;;;;;;;8.60;100.00;99848.31;4927419;29;20122;-89
2023/03/25 04:54:23;;;;;;;15.32;4.05;;;;;;;8.43;100.00;99840.63;4906753;29;20028;-88
2023/03/25 04:56:50;;;;;;;15.48;4.95;;;;;;;8.49;100.00;99850.22;4914404;29;20379;-89
2023/03/25 04:59:20;;;;;;;15.27;4.70;;;;;;;8.44;100.00;99845.03;4915945;29;20378;-88
2023/03/25 05:01:46;;;;;;;14.00;3.97;;;;;;;8.27;100.00;99835.31;4905443;29;20061;-89
2023/03/25 05:04:16;;;;;;;14.73;4.65;;;;;;;8.46;100.00;99849.03;4907199;29;20095;-88
2023/03/25 05:06:46;;;;;;;15.48;3.97;;;;;;;8.46;100.00;99843.44;4927411;29;20683;-89
2023/03/25 05:09:14;;;;;;;18.55;5.43;;;;;;;8.43;100.00;99848.97;4927561;29;20030;-89
2023/03/25 05:11:40;;;;;;;12.90;3.90;;;;;;;8.27;100.00;99841.69;4924136;29;20395;-89
2023/03/25 05:14:10;;;;;;;10.68;4.30;;;;;;;8.26;100.00;99856.00;4911609;29;20034;-88
2023/03/25 05:16:36;;;;;;;12.63;3.30;;;;;;;8.22;100.00;99847.66;4928504;29;20028;-88
2023/03/25 05:19:02;;;;;;;15.07;3.95;;;;;;;8.14;100.00;99851.56;4910813;29;20031;-88
2023/03/25 05:21:35;;;;;;;14.27;3.97;;;;;;;8.26;100.00;99859.59;4921785;29;20039;-88
2023/03/25 05:24:01;;;;;;;10.95;3.63;;;;;;;8.24;100.00;99863.97;4911192;29;20456;-89
2023/03/25 05:26:33;;;;;;;13.57;3.70;;;;;;;8.31;100.00;99844.50;4912485;29;20492;-88
2023/03/25 05:29:02;;;;;;;11.30;3.60;;;;;;;8.41;100.00;99859.72;4912138;29;20127;-87
2023/03/25 05:31:28;;;;;;;11.60;3.08;;;;;;;8.50;100.00;99863.00;4911592;29;20401;-88
2023/03/25 05:33:53;;;;;;;10.40;2.85;;;;;;;8.32;100.00;99857.25;4916257;29;20040;-88
2023/03/25 05:36:19;;;;;;;13.27;3.40;;;;;;;8.35;100.00;99871.22;4919770;29;20045;-88
2023/03/25 05:38:45;;;;;;;10.10;2.92;;;;;;;8.42;100.00;99861.34;4907598;29;20461;-87
2023/03/25 05:41:15;;;;;;;11.27;2.50;;;;;;;8.35;100.00;99878.81;4902688;29;20024;-87
2023/03/25 05:43:46;;;;;;;8.40;2.38;;;;;;;8.30;100.00;99868.78;4908538;29;20111;-88
2023/03/25 05:46:13;;;;;;;12.38;2.80;;;;;;;8.34;100.00;99869.59;4908417;29;20036;-87
2023/03/25 05:48:40;;;;;;;7.57;2.70;;;;;;;8.40;100.00;99869.28;4922861;29;20132;-88
2023/03/25 05:51:16;;;;;;;14.20;2.75;;;;;;;8.32;100.00;99876.78;4926093;29;20048;-87
2023/03/25 05:53:44;;;;;;;17.10;3.90;;;;;;;8.38;100.00;99877.22;4922864;29;20038;-88
2023/03/25 05:56:12;;;;;;;13.43;4.50;;;;;;;8.31;100.00;99875.97;4911583;29;20035;-88
2023/03/25 05:58:38;;;;;;;9.68;2.65;;;;;;;8.33;100.00;99879.19;4931055;29;20450;-88
2023/03/25 06:01:04;;;;;;;8.50;2.42;;;;;;;8.23;100.00;99885.47;4918882;29;20036;-88
2023/03/25 06:03:33;;;;;;;11.73;2.47;;;;;;;8.37;100.00;99883.97;4921746;29;20115;-88
2023/03/25 06:05:59;;;;;;;9.18;2.97;;;;;;;8.31;100.00;99881.56;4931396;29;20059;-88
2023/03/25 06:08:25;;;;;;;10.50;2.95;;;;;;;8.32;100.00;99879.56;4926765;29;20067;-88
2023/03/25 06:10:57;;;;;;;16.48;3.75;;;;;;;8.33;100.00;99887.53;4907660;29;20027;-88
2023/03/25 06:13:23;;;;;;;18.33;4.20;;;;;;;8.33;100.00;99895.13;4911512;29;20031;-88
2023/03/25 06:15:54;;;;;;;19.45;3.10;;;;;;;8.24;100.00;99884.28;4925055;29;20118;-88
2023/03/25 06:18:23;;;;;;;19.88;4.55;;;;;;;8.34;100.00;99889.13;4905072;29;20031;-88
2023/03/25 06:20:50;;;;;;;15.23;3.85;;;;;;;8.34;100.00;99897.50;4915090;29;20035;-88
2023/03/25 06:23:16;;;;;;;20.08;4.53;;;;;;;8.16;100.00;99896.56;4916422;29;20051;-87
2023/03/25 06:25:41;;;;;;;13.40;3.38;;;;;;;8.24;100.00;99894.63;4906947;29;20114;-88
2023/03/25 06:28:07;;;;;;;12.52;3.70;;;;;;;8.34;100.00;99889.13;4926534;29;20032;-87
2023/03/25 06:30:32;;;;;;;19.33;4.47;;;;;;;8.48;100.00;99896.06;4922835;29;20397;-88
2023/03/25 06:33:01;;;;;;;16.75;4.18;;;;;;;8.48;100.00;99882.09;4910833;29;20035;-88
2023/03/25 06:35:27;;;;;;;17.65;3.90;;;;;;;8.37;100.00;99903.47;4912726;29;20028;-87
2023/03/25 06:37:53;;;;;;;14.90;4.38;;;;;;;8.52;100.00;99899.66;4927493;29;20027;-87
2023/03/25 06:40:18;;;;;;;22.70;5.93;;;;;;;8.55;100.00;99901.66;4922598;29;20031;-88
2023/03/25 06:42:45;;;;;;;12.40;4.30;;;;;;;8.50;100.00;99900.03;4905440;29;20169;-88
2023/03/25 06:45:11;;;;;;;14.98;3.83;;;;;;;8.53;100.00;99899.25;4929488;29;20043;-89
2023/03/25 06:47:37;;;;;;;22.90;5.18;;;;;;;8.38;100.00;99874.44;4927666;29;20437;-89
2023/03/25 06:50:03;;;;;;;27.25;6.32;;;;;;;8.63;100.00;99894.16;4930802;29;20039;-88
2023/03/25 06:52:31;;;;;;;16.25;3.55;;;;;;;8.61;100.00;99900.13;4908673;29;20031;-88
2023/03/25 06:54:56;;;;;;;22.35;4.50;;;;;;;8.54;100.00;99897.28;4925326;29;20031;-88
2023/03/25 06:57:22;;;;;;;20.00;5.55;;;;;;;8.48;100.00;99879.31;4920239;29;20038;-88
2023/03/25 06:59:48;;;;;;;20.83;5.53;;;;;;;8.44;100.00;99884.06;4917059;29;20035;-88
2023/03/25 07:02:14;;;;;;;17.15;4.22;;;;;;;8.59;100.00;99896.91;4914958;29;20035;-88
2023/03/25 07:04:40;;;;;;;18.98;4.30;;;;;;;8.53;100.00;99892.88;4928523;29;20594;-87
2023/03/25 07:07:06;;;;;;;16.02;4.18;;;;;;;8.55;100.00;99890.50;4903230;29;20024;-87
2023/03/25 07:09:32;;;;;;;26.50;5.95;;;;;;;8.60;100.00;99895.75;4919463;29;20032;-88
2023/03/25 07:11:57;;;;;;;21.90;5.13;;;;;;;8.59;100.00;99884.97;4898697;29;20030;-88
2023/03/25 07:14:23;;;;;;;23.35;5.25;;;;;;;8.59;100.00;99904.50;4921875;29;20378;-88
2023/03/25 07:16:49;;;;;;;27.08;5.88;;;;;;;8.58;100.00;99912.06;4903064;29;20402;-89
2023/03/25 07:19:15;;;;;;;16.80;4.82;;;;;;;8.50;100.00;99904.84;4925660;29;20530;-88
2023/03/25 07:21:40;;;;;;;20.15;3.83;;;;;;;8.39;100.00;99913.09;4924575;29;20127;-88
2023/03/25 07:24:06;;;;;;;20.55;6.50;;;;;;;8.40;100.00;99905.50;4910930;29;20486;-88
2023/03/25 07:26:31;;;;;;;17.45;3.80;;;;;;;8.57;100.00;99909.66;4906603;29;20028;-88
2023/03/25 07:28:57;;;;;;;15.55;4.55;;;;;;;8.52;100.00;99917.19;4926253;29;20038;-88
2023/03/25 07:31:23;;;;;;;21.65;3.85;;;;;;;8.39;100.00;99921.47;4900891;29;20402;-88
2023/03/25 07:33:50;;;;;;;18.58;3.65;;;;;;;8.50;100.00;99910.41;4925125;29;20293;-88
2023/03/25 07:36:16;;;;;;;19.10;3.83;;;;;;;8.46;100.00;99915.94;4883096;29;20082;-88
2023/03/25 07:38:42;;;;;;;28.90;6.03;;;;;;;8.53;100.00;99912.41;4896798;29;20035;-87
2023/03/25 07:41:12;;;;;;;28.27;4.15;;;;;;;8.53;100.00;99915.19;4922116;29;20099;-88
2023/03/25 07:43:38;;;;;;;15.40;4.10;;;;;;;8.50;100.00;99916.78;4920130;29;20095;-87
2023/03/25 07:46:04;;;;;;;18.63;4.18;;;;;;;8.51;100.00;99915.56;4919703;29;20032;-88
2023/03/25 07:48:30;;;;;;;20.08;3.90;;;;;;;8.58;100.00;99917.63;4921574;29;20036;-88
2023/03/25 07:50:55;;;;;;;10.98;2.78;;;;;;;8.51;100.00;99917.56;4902658;29;20077;-88
2023/03/25 07:53:21;;;;;;;21.80;3.20;;;;;;;8.63;100.00;99924.84;4919525;29;20039;-88
2023/03/25 07:55:49;;;;;;;11.50;3.30;;;;;;;8.63;100.00;99914.47;4907127;29;20869;-89
2023/03/25 07:58:16;;;;;;;24.55;3.78;;;;;;;8.70;100.00;99908.94;4924749;29;20494;-88
2023/03/25 08:00:41;;;;;;;21.77;4.75;;;;;;;8.55;100.00;99901.66;4928773;29;20055;-88
2023/03/25 08:03:08;;;;;;;15.80;4.05;;;;;;;8.67;100.00;99920.88;4934502;29;20397;-88
2023/03/25 08:05:34;;;;;;;28.15;4.25;;;;;;;8.58;100.00;99906.47;4915086;29;20389;-89
2023/03/25 08:08:00;;;;;;;16.38;4.72;;;;;;;8.70;100.00;99924.88;4907987;29;20035;-89
2023/03/25 08:10:26;;;;;;;17.30;3.60;;;;;;;8.72;100.00;99916.91;4931064;29;20035;-87
2023/03/25 08:12:52;;;;;;;16.50;4.45;;;;;;;8.78;100.00;99914.56;4909814;29;20382;-87
2023/03/25 08:15:20;;;;;;;19.08;4.88;;;;;;;8.68;100.00;99921.69;4906334;29;20118;-84
2023/03/25 08:17:46;;;;;;;18.45;4.28;;;;;;;8.80;100.00;99926.16;4922721;29;20027;-85
2023/03/25 08:20:12;;;;;;;19.15;4.45;;;;;;;8.77;100.00;99924.94;4923137;29;20034;-85
2023/03/25 08:22:38;;;;;;;16.80;3.95;;;;;;;8.84;100.00;99938.94;4904045;29;20058;-84
2023/03/25 08:25:04;;;;;;;24.88;5.45;;;;;;;8.86;100.00;99930.16;4923580;29;20101;-84
2023/03/25 08:27:30;;;;;;;20.50;4.90;;;;;;;8.82;100.00;99932.94;4904766;29;20032;-86
2023/03/25 08:29:56;;;;;;;28.48;4.90;;;;;;;8.86;100.00;99932.97;4903860;29;20043;-85
2023/03/25 08:32:26;;;;;;;25.35;5.10;;;;;;;8.80;100.00;99929.72;4909332;29;20027;-86
2023/03/25 08:34:52;;;;;;;20.42;4.05;;;;;;;8.94;100.00;99942.97;4924070;29;20360;-85
2023/03/25 08:37:18;;;;;;;38.78;7.65;;;;;;;8.86;100.00;99944.13;4918424;29;20051;-86
2023/03/25 08:39:44;;;;;;;20.90;5.82;;;;;;;8.84;100.00;99932.56;4909322;29;20131;-86
2023/03/25 08:42:11;;;;;;;26.60;6.05;;;;;;;8.77;100.00;99929.69;4902851;29;20231;-86
2023/03/25 08:44:37;;;;;;;20.95;4.65;;;;;;;8.82;100.00;99944.09;4922591;29;20111;-86
2023/03/25 08:47:03;;;;;;;23.13;6.35;;;;;;;8.73;100.00;99932.50;4900562;29;20446;-85
2023/03/25 08:49:28;;;;;;;18.60;4.32;;;;;;;8.82;100.00;99948.88;4924758;29;20043;-85
2023/03/25 08:51:56;;;;;;;20.92;4.15;;;;;;;9.35;100.00;99948.38;4923369;29;22318;-83
2023/03/25 08:54:22;;;;;;;15.68;4.65;;;;;;;9.43;100.00;99944.41;4913706;29;20066;-86
2023/03/25 08:56:48;;;;;;;21.70;4.38;;;;;;;9.03;100.00;99943.41;4927593;29;20034;-85
2023/03/25 08:59:13;;;;;;;22.70;4.70;;;;;;;8.87;100.00;99937.34;4919787;29;20053;-86
2023/03/25 09:01:39;;;;;;;23.50;4.95;;;;;;;8.88;100.00;99947.31;4915780;29;20505;-85
2023/03/25 09:04:04;;;;;;;24.52;5.55;;;;;;;9.01;100.00;99953.38;4898005;29;20038;-85
2023/03/25 09:06:30;;;;;;;20.63;4.85;;;;;;;8.96;100.00;99937.81;4921896;29;20493;-85
2023/03/25 09:08:55;;;;;;;35.35;5.05;;;;;;;8.98;100.00;99940.19;4900362;29;20036;-86
2023/03/25 09:11:21;;;;;;;29.00;4.70;;;;;;;8.99;100.00;99950.97;4918173;29;20024;-86
2023/03/25 09:13:46;;;;;;;12.20;4.70;;;;;;;8.97;100.00;99955.34;4901126;29;20243;-86
2023/03/25 09:16:12;;;;;;;22.65;4.38;;;;;;;8.96;100.00;99962.94;4926075;29;20035;-86
2023/03/25 09:18:37;;;;;;;21.92;3.25;;;;;;;9.02;100.00;99952.97;4915638;29;20063;-86
2023/03/25 09:21:03;;;;;;;25.20;5.32;;;;;;;9.05;100.00;99962.59;4931553;29;20024;-86
2023/03/25 09:23:29;;;;;;;18.50;4.43;;;;;;;9.07;100.00;99965.78;4930035;29;20553;-86
2023/03/25 09:25:55;;;;;;;18.00;5.57;;;;;;;9.04;100.00;99956.16;4920904;29;20032;-86
2023/03/25 09:28:21;;;;;;;20.75;4.18;;;;;;;9.08;100.00;99956.19;4915814;29;20051;-87
2023/03/25 09:30:46;;;;;;;14.68;4.43;;;;;;;9.14;100.00;99965.81;4909372;29;20130;-87
2023/03/25 09:33:13;;;;;;;26.45;4.38;;;;;;;9.06;100.00;99969.75;4928302;29;20566;-85
2023/03/25 09:35:40;;;;;;;28.30;5.53;;;;;;;9.05;100.00;99968.97;4928680;29;20075;-86
2023/03/25 09:38:06;;;;;;;24.65;4.10;;;;;;;9.07;100.00;99968.56;4932364;29;20546;-86
2023/03/25 09:40:33;;;;;;;22.00;4.32;;;;;;;8.98;100.00;99982.88;4932666;29;20478;-85
2023/03/25 09:43:05;;;;;;;20.25;4.28;;;;;;;8.90;100.00;99968.06;4932608;29;20082;-86
2023/03/25 09:45:38;;;;;;;17.40;4.90;;;;;;;8.87;100.00;99970.81;4912677;29;20023;-87
2023/03/25 09:48:27;;;;;;;19.00;4.40;;;;;;;8.89;100.00;99987.97;4931843;29;20474;-87
2023/03/25 09:50:52;;;;;;;25.67;4.03;;;;;;;8.88;100.00;99992.78;4905797;29;20130;-87
2023/03/25 09:53:42;;;;;;;25.52;4.03;;;;;;;8.89;100.00;99977.63;4928697;29;20043;-86
2023/03/25 09:56:15;;;;;;;12.27;3.55;;;;;;;8.97;100.00;99980.47;4929905;29;20050;-86
2023/03/25 09:58:53;;;;;;;23.23;4.65;;;;;;;8.84;100.00;99968.81;4928052;29;20027;-87
2023/03/25 10:01:28;;;;;;;17.92;4.05;;;;;;;9.01;100.00;99968.13;4915847;29;20035;-87
2023/03/25 10:03:57;;;;;;;21.20;4.10;;;;;;;8.84;100.00;99982.78;4923755;29;20577;-88
2023/03/25 10:06:26;;;;;;;18.38;3.75;;;;;;;8.83;100.00;99989.53;4910494;29;20379;-90
2023/03/25 10:09:14;;;;;;;19.50;4.18;;;;;;;8.82;100.00;99988.75;4912953;29;20036;-90
2023/03/25 10:11:56;;;;;;;19.88;3.45;;;;;;;8.73;100.00;99977.91;4933129;29;20043;-91
2023/03/25 10:14:44;;;;;;;11.88;2.90;;;;;;;8.95;100.00;99987.22;4932944;29;20094;-88
2023/03/25 10:17:31;;;;;;;28.10;4.82;;;;;;;9.03;100.00;99992.88;4913683;29;20039;-89
2023/03/25 10:20:48;;;;;;;21.23;5.30;;;;;;;8.99;100.00;99992.84;4928857;29;20035;-89
2023/03/25 10:23:41;;;;;;;23.35;4.38;;;;;;;9.04;100.00;100000.84;4906874;29;20443;-87
2023/03/25 10:26:19;;;;;;;25.60;6.30;;;;;;;9.08;100.00;99990.50;4928187;29;20561;-87
2023/03/25 10:29:09;;;;;;;19.65;4.22;;;;;;;9.24;100.00;99990.19;4924498;29;20031;-86
2023/03/25 10:31:41;;;;;;;11.00;4.00;;;;;;;9.24;100.00;99989.41;4930491;29;20031;-85
2023/03/25 10:34:15;;;;;;;22.33;4.38;;;;;;;9.26;100.00;99990.63;4927919;29;20490;-86
2023/03/25 10:36:55;;;;;;;18.88;4.07;;;;;;;9.51;100.00;99990.75;4932093;29;20107;-86
2023/03/25 10:39:23;;;;;;;21.70;5.35;;;;;;;9.49;100.00;99984.75;4929982;29;20027;-86
2023/03/25 10:42:21;;;;;;;16.33;4.53;;;;;;;9.43;100.00;99989.09;4930642;29;20174;-85
2023/03/25 10:44:47;;;;;;;16.02;3.58;;;;;;;9.49;100.00;99981.16;4923573;29;20039;-85
2023/03/25 10:47:18;;;;;;;20.52;3.38;;;;;;;9.50;100.00;99983.53;4928280;29;20035;-85
2023/03/25 10:49:46;;;;;;;17.70;4.40;;;;;;;9.56;100.00;99986.75;4928891;29;20064;-85
2023/03/25 10:52:12;;;;;;;18.23;4.28;;;;;;;9.59;100.00;99993.56;4927380;29;20051;-85
2023/03/25 10:54:44;;;;;;;11.07;2.90;;;;;;;9.58;100.00;100001.13;4926444;29;20032;-86
2023/03/25 10:57:22;;;;;;;20.65;3.55;;;;;;;9.54;100.00;99994.72;4914825;29;20548;-85
2023/03/25 10:59:57;;;;;;;21.35;4.35;;;;;;;9.65;100.00;100001.16;4906751;29;20123;-85
2023/03/25 11:02:26;;;;;;;10.02;4.20;;;;;;;9.67;100.00;99992.38;4929116;29;20035;-85
2023/03/25 11:04:55;;;;;;;14.52;4.13;;;;;;;9.76;100.00;100006.78;4928026;29;20062;-84
2023/03/25 11:07:25;;;;;;;14.48;3.08;;;;;;;9.81;100.00;99997.25;4929893;29;20047;-84
2023/03/25 11:09:51;;;;;;;14.30;3.17;;;;;;;9.92;100.00;99993.25;4913397;29;20157;-84
2023/03/25 11:12:20;;;;;;;20.38;3.33;;;;;;;10.06;100.00;100002.91;4913623;29;20496;-85
2023/03/25 11:14:54;;;;;;;12.77;3.50;;;;;;;9.99;100.00;99986.88;4912681;29;20055;-84
2023/03/25 11:17:24;;;;;;;11.75;3.63;;;;;;;9.92;100.00;100006.44;4922831;29;20028;-84
2023/03/25 11:19:59;;;;;;;17.00;3.40;;;;;;;9.91;100.00;100002.06;4927480;29;20027;-84
2023/03/25 11:22:35;;;;;;;18.00;3.38;;;;;;;9.96;100.00;100010.06;4930268;29;20474;-84
2023/03/25 11:25:06;;;;;;;10.02;3.22;;;;;;;9.98;100.00;100002.88;4926898;29;20393;-84
2023/03/25 11:27:42;;;;;;;14.93;3.63;;;;;;;10.07;100.00;100005.28;4914309;29;20135;-84
2023/03/25 11:30:18;;;;;;;21.30;2.90;;;;;;;10.15;100.00;100006.91;4912526;29;20393;-84
2023/03/25 11:32:56;;;;;;;17.30;4.80;;;;;;;10.10;100.00;99986.94;4924436;29;20096;-84
2023/03/25 11:35:25;;;;;;;20.08;3.50;;;;;;;10.14;100.00;99987.72;4909303;29;20031;-84
2023/03/25 11:37:57;;;;;;;13.35;3.50;;;;;;;10.17;100.00;99996.13;4930196;29;20111;-84
2023/03/25 11:40:23;;;;;;;12.83;3.17;;;;;;;10.32;100.00;100001.78;4926492;29;20031;-84
2023/03/25 11:42:55;;;;;;;21.33;4.25;;;;;;;10.17;100.00;100006.50;4928577;29;20054;-83